createdAt,value
2018-07-06T00:00:24.585Z,6.93
2018-07-06T00:03:03.980Z,5.77
2018-07-06T00:05:42.905Z,5.23
2018-07-06T00:08:22.610Z,5.10
2018-07-06T00:11:01.608Z,6.07
2018-07-06T00:13:40.970Z,5.30
2018-07-06T00:16:14.161Z,4.27
2018-07-06T00:18:53.717Z,5.00
2018-07-06T00:21:32.512Z,4.10
2018-07-06T00:24:12.332Z,4.30
2018-07-06T00:26:51.800Z,4.33
2018-07-06T00:29:26.198Z,5.53
2018-07-06T00:32:05.280Z,5.60
2018-07-06T00:34:44.337Z,6.07
2018-07-06T00:37:23.854Z,4.40
2018-07-06T00:40:03.388Z,5.10
2018-07-06T00:42:42.404Z,3.63
2018-07-06T00:45:21.942Z,3.90
2018-07-06T00:48:02.371Z,3.40
2018-07-06T00:50:42.121Z,3.60
2018-07-06T00:53:21.666Z,3.43
2018-07-06T00:56:00.724Z,3.73
2018-07-06T00:58:40.316Z,3.30
2018-07-06T01:01:19.899Z,3.80
2018-07-06T01:04:00.101Z,3.40
2018-07-06T01:06:39.188Z,3.60
2018-07-06T01:09:18.371Z,3.53
2018-07-06T01:12:02.452Z,3.40
2018-07-06T01:14:43.073Z,2.80
2018-07-06T01:17:23.601Z,3.33
2018-07-06T01:20:02.503Z,3.40
2018-07-06T01:22:43.222Z,3.33
2018-07-06T01:25:22.072Z,3.87
2018-07-06T01:28:01.232Z,3.40
2018-07-06T01:30:41.152Z,3.13
2018-07-06T01:33:20.124Z,2.90
2018-07-06T01:35:59.232Z,2.80
2018-07-06T01:38:39.824Z,3.43
2018-07-06T01:41:19.070Z,3.00
2018-07-06T01:43:58.424Z,2.70
2018-07-06T01:46:38.129Z,3.17
2018-07-06T01:49:17.129Z,3.37
2018-07-06T01:51:56.361Z,3.13
2018-07-06T01:54:35.388Z,3.40
2018-07-06T01:57:15.473Z,3.00
2018-07-06T01:59:55.424Z,3.60
2018-07-06T02:02:34.500Z,3.20
2018-07-06T02:05:13.644Z,3.13
2018-07-06T02:07:52.537Z,3.50
2018-07-06T02:10:32.425Z,3.70
2018-07-06T02:13:14.844Z,3.50
2018-07-06T02:15:53.873Z,3.47
2018-07-06T02:18:33.693Z,3.90
2018-07-06T02:21:13.137Z,3.67
2018-07-06T02:23:52.324Z,3.50
2018-07-06T02:26:31.585Z,4.00
2018-07-06T02:29:11.961Z,4.77
2018-07-06T02:31:51.036Z,3.93
2018-07-06T02:34:30.173Z,4.10
2018-07-06T02:37:09.964Z,3.47
2018-07-06T02:39:49.592Z,3.80
2018-07-06T02:42:28.660Z,3.30
2018-07-06T02:45:09.084Z,2.53
2018-07-06T02:47:48.540Z,2.40
2018-07-06T02:50:27.521Z,3.00
2018-07-06T02:53:06.615Z,2.87
2018-07-06T02:55:45.769Z,2.60
2018-07-06T02:58:25.300Z,2.60
2018-07-06T03:01:04.901Z,3.20
2018-07-06T03:03:44.477Z,3.50
2018-07-06T03:06:24.173Z,4.00
2018-07-06T03:09:04.054Z,3.37
2018-07-06T03:11:43.742Z,3.40
2018-07-06T03:14:22.884Z,3.03
2018-07-06T03:17:03.969Z,3.53
2018-07-06T03:19:43.004Z,3.30
2018-07-06T03:22:22.145Z,3.63
2018-07-06T03:25:01.154Z,3.53
2018-07-06T03:27:40.393Z,3.83
2018-07-06T03:30:19.884Z,3.87
2018-07-06T03:32:58.835Z,3.87
2018-07-06T03:35:37.868Z,3.07
2018-07-06T03:38:17.377Z,2.40
2018-07-06T03:40:57.540Z,2.40
2018-07-06T03:43:37.192Z,2.60
2018-07-06T03:46:16.356Z,2.40
2018-07-06T03:48:56.440Z,1.90
2018-07-06T03:51:35.633Z,1.90
2018-07-06T03:54:14.652Z,2.00
2018-07-06T03:56:53.684Z,1.90
2018-07-06T03:59:33.576Z,1.90
2018-07-06T04:02:13.316Z,1.60
2018-07-06T04:04:52.580Z,2.13
2018-07-06T04:07:31.704Z,2.20
2018-07-06T04:10:10.955Z,2.07
2018-07-06T04:12:49.977Z,1.97
2018-07-06T04:15:29.736Z,1.80
2018-07-06T04:18:09.429Z,1.97
2018-07-06T04:20:48.403Z,1.80
2018-07-06T04:23:27.544Z,1.80
2018-07-06T04:26:06.516Z,1.30
2018-07-06T04:28:45.964Z,1.30
2018-07-06T04:31:25.459Z,1.73
2018-07-06T04:34:04.779Z,2.10
2018-07-06T04:36:44.139Z,2.30
2018-07-06T04:39:23.219Z,1.90
2018-07-06T04:42:02.943Z,1.63
2018-07-06T04:44:43.065Z,1.50
2018-07-06T04:47:22.331Z,1.60
2018-07-06T04:50:01.444Z,1.30
2018-07-06T04:52:40.810Z,1.70
2018-07-06T04:55:20.477Z,1.50
2018-07-06T04:57:59.464Z,1.40
2018-07-06T05:00:40.211Z,1.80
2018-07-06T05:03:19.595Z,2.37
2018-07-06T05:05:58.580Z,1.60
2018-07-06T05:08:38.149Z,1.93
2018-07-06T05:11:17.026Z,1.90
2018-07-06T05:13:56.132Z,1.77
2018-07-06T05:16:35.417Z,1.63
2018-07-06T05:19:14.914Z,1.80
2018-07-06T05:21:53.961Z,1.90
2018-07-06T05:24:33.100Z,1.70
2018-07-06T05:27:12.180Z,2.07
2018-07-06T05:29:52.464Z,1.70
2018-07-06T05:32:32.905Z,1.60
2018-07-06T05:35:11.876Z,1.83
2018-07-06T05:37:52.164Z,1.63
2018-07-06T05:40:31.111Z,1.73
2018-07-06T05:43:10.506Z,1.77
2018-07-06T05:45:49.913Z,1.67
2018-07-06T05:48:28.972Z,1.60
2018-07-06T05:51:07.828Z,2.47
2018-07-06T05:53:48.082Z,1.80
2018-07-06T05:56:27.425Z,1.27
2018-07-06T05:59:07.346Z,1.60
2018-07-06T06:01:46.977Z,1.73
2018-07-06T06:04:25.832Z,1.60
2018-07-06T06:07:04.986Z,1.50
2018-07-06T06:09:32.648Z,1.30
2018-07-06T06:12:00.876Z,1.20
2018-07-06T06:14:28.434Z,1.40
2018-07-06T06:16:56.344Z,1.50
2018-07-06T06:19:24.225Z,1.30
2018-07-06T06:21:51.746Z,1.60
2018-07-06T06:24:19.260Z,1.57
2018-07-06T06:26:46.857Z,1.40
2018-07-06T06:29:14.388Z,2.00
2018-07-06T06:31:43.213Z,1.40
2018-07-06T06:34:10.860Z,1.80
2018-07-06T06:36:39.006Z,2.07
2018-07-06T06:39:06.592Z,1.70
2018-07-06T06:41:34.913Z,2.33
2018-07-06T06:44:02.977Z,1.70
2018-07-06T06:46:30.648Z,2.00
2018-07-06T06:48:58.915Z,2.00
2018-07-06T06:51:26.566Z,1.40
2018-07-06T06:53:55.105Z,1.40
2018-07-06T06:56:23.340Z,1.40
2018-07-06T06:58:51.353Z,1.40
2018-07-06T07:01:19.145Z,1.57
2018-07-06T07:03:46.777Z,1.90
2018-07-06T07:06:14.396Z,1.60
2018-07-06T07:08:42.524Z,1.63
2018-07-06T07:11:10.073Z,1.40
2018-07-06T07:13:37.684Z,1.40
2018-07-06T07:16:05.700Z,1.40
2018-07-06T07:18:33.673Z,1.20
2018-07-06T07:21:01.276Z,1.40
2018-07-06T07:23:28.922Z,1.40
2018-07-06T07:25:57.315Z,1.10
2018-07-06T07:28:25.409Z,1.60
2018-07-06T07:30:54.025Z,1.40
2018-07-06T07:33:21.596Z,1.40
2018-07-06T07:35:49.204Z,1.70
2018-07-06T07:38:17.121Z,1.20
2018-07-06T07:40:45.369Z,1.70
2018-07-06T07:43:13.377Z,1.53
2018-07-06T07:45:40.993Z,1.40
2018-07-06T07:48:08.514Z,1.50
2018-07-06T07:50:41.330Z,1.30
2018-07-06T07:53:21.234Z,1.40
2018-07-06T07:55:49.282Z,1.70
2018-07-06T07:58:16.922Z,1.83
2018-07-06T08:00:46.147Z,1.70
2018-07-06T08:03:14.153Z,1.70
2018-07-06T08:05:41.730Z,1.90
2018-07-06T08:08:09.386Z,2.00
2018-07-06T08:10:37.001Z,2.00
2018-07-06T08:13:05.521Z,1.70
2018-07-06T08:15:33.106Z,1.83
2018-07-06T08:18:01.272Z,2.13
2018-07-06T08:20:28.786Z,2.00
2018-07-06T08:22:56.889Z,1.73
2018-07-06T08:25:25.106Z,3.07
2018-07-06T08:27:52.964Z,2.50
2018-07-06T08:30:20.511Z,1.90
2018-07-06T08:32:48.105Z,1.60
2018-07-06T08:35:27.141Z,1.80
2018-07-06T08:38:00.644Z,1.73
2018-07-06T08:40:28.516Z,1.40
2018-07-06T08:42:58.786Z,2.07
2018-07-06T08:45:27.893Z,1.67
2018-07-06T08:47:55.713Z,1.70
2018-07-06T08:50:23.347Z,1.50
2018-07-06T08:52:52.236Z,1.27
2018-07-06T08:55:20.476Z,1.67
2018-07-06T08:57:49.631Z,1.50
2018-07-06T09:00:17.779Z,1.60
2018-07-06T09:02:45.694Z,1.93
2018-07-06T09:05:13.684Z,1.90
2018-07-06T09:07:41.337Z,1.60
2018-07-06T09:10:09.516Z,1.70
2018-07-06T09:12:37.713Z,1.60
2018-07-06T09:15:06.641Z,1.77
2018-07-06T09:17:35.545Z,1.30
2018-07-06T09:20:03.273Z,1.70
2018-07-06T09:22:30.915Z,1.60
2018-07-06T09:25:00.163Z,1.63
2018-07-06T09:27:27.634Z,1.60
2018-07-06T09:29:56.481Z,1.83
2018-07-06T09:32:24.049Z,1.70
2018-07-06T09:34:51.921Z,1.80
2018-07-06T09:37:19.924Z,1.60
2018-07-06T09:39:48.745Z,1.60
2018-07-06T09:42:17.330Z,1.47
2018-07-06T09:44:45.281Z,1.90
2018-07-06T09:47:13.521Z,1.50
2018-07-06T09:49:41.473Z,1.47
2018-07-06T09:52:09.053Z,1.60
2018-07-06T09:54:37.244Z,2.07
2018-07-06T09:57:04.913Z,1.57
2018-07-06T09:59:32.451Z,1.87
2018-07-06T10:02:00.393Z,1.60
2018-07-06T10:04:28.045Z,1.60
2018-07-06T10:06:55.673Z,1.60
2018-07-06T10:09:23.241Z,1.37
2018-07-06T10:11:50.817Z,1.43
2018-07-06T10:14:18.480Z,1.43
2018-07-06T10:16:46.074Z,1.50
2018-07-06T10:19:14.013Z,1.20
2018-07-06T10:21:42.152Z,1.20
2018-07-06T10:24:09.729Z,1.30
2018-07-06T10:26:37.289Z,1.77
2018-07-06T10:29:16.465Z,1.33
2018-07-06T10:31:53.656Z,1.17
2018-07-06T10:34:21.281Z,1.30
2018-07-06T10:36:49.130Z,1.20
2018-07-06T10:39:17.144Z,1.10
2018-07-06T10:41:45.473Z,1.57
2018-07-06T10:44:13.383Z,1.57
2018-07-06T10:46:41.678Z,1.30
2018-07-06T10:49:09.788Z,1.37
2018-07-06T10:51:37.305Z,1.00
2018-07-06T10:54:04.833Z,0.93
2018-07-06T10:56:33.529Z,0.90
2018-07-06T10:59:01.074Z,1.40
2018-07-06T11:01:29.496Z,1.33
2018-07-06T11:03:57.837Z,1.10
2018-07-06T11:06:26.527Z,1.53
2018-07-06T11:08:54.163Z,1.43
2018-07-06T11:11:21.794Z,1.10
2018-07-06T11:13:49.437Z,1.10
2018-07-06T11:16:16.953Z,1.20
2018-07-06T11:18:45.468Z,0.90
2018-07-06T11:21:12.997Z,1.60
2018-07-06T11:23:40.529Z,1.17
2018-07-06T11:26:08.106Z,1.00
2018-07-06T11:28:36.329Z,1.20
2018-07-06T11:31:03.906Z,1.00
2018-07-06T11:33:31.503Z,1.00
2018-07-06T11:36:00.908Z,1.30
2018-07-06T11:38:29.021Z,0.80
2018-07-06T11:40:57.065Z,2.10
2018-07-06T11:43:25.140Z,1.03
2018-07-06T11:45:53.081Z,1.30
2018-07-06T11:48:21.076Z,1.80
2018-07-06T11:50:49.305Z,2.17
2018-07-06T11:53:16.948Z,1.17
2018-07-06T11:55:44.897Z,1.00
2018-07-06T11:58:12.698Z,0.90
2018-07-06T12:00:41.115Z,0.83
2018-07-06T12:03:08.688Z,0.90
2018-07-06T12:05:36.267Z,0.80
2018-07-06T12:08:03.841Z,0.80
2018-07-06T12:10:31.409Z,0.80
2018-07-06T12:12:59.073Z,0.90
2018-07-06T12:15:26.720Z,0.70
2018-07-06T12:17:54.629Z,0.80
2018-07-06T12:20:22.193Z,0.80
2018-07-06T12:22:49.807Z,0.90
2018-07-06T12:25:18.329Z,0.70
2018-07-06T12:27:45.921Z,0.70
2018-07-06T12:30:13.518Z,0.80
2018-07-06T12:32:41.052Z,0.90
2018-07-06T12:35:08.577Z,0.83
2018-07-06T12:37:37.340Z,0.97
2018-07-06T12:40:04.993Z,1.07
2018-07-06T12:42:33.425Z,2.00
2018-07-06T12:45:01.779Z,2.30
2018-07-06T12:47:29.353Z,1.30
2018-07-06T12:49:56.938Z,1.30
2018-07-06T12:52:24.513Z,0.90
2018-07-06T12:54:52.562Z,1.10
2018-07-06T12:57:20.084Z,1.10
2018-07-06T12:59:48.540Z,1.00
2018-07-06T13:02:16.642Z,1.13
2018-07-06T13:04:44.180Z,1.10
2018-07-06T13:07:11.763Z,1.10
2018-07-06T13:09:39.300Z,0.83
2018-07-06T13:12:07.601Z,0.70
2018-07-06T13:14:35.753Z,0.80
2018-07-06T13:17:03.984Z,0.80
2018-07-06T13:19:31.601Z,0.80
2018-07-06T13:21:59.578Z,0.80
2018-07-06T13:24:27.044Z,0.90
2018-07-06T13:26:54.657Z,0.93
2018-07-06T13:29:22.244Z,0.80
2018-07-06T13:31:49.772Z,1.13
2018-07-06T13:34:17.385Z,3.20
2018-07-06T13:36:45.475Z,1.23
2018-07-06T13:39:13.051Z,1.20
2018-07-06T13:41:41.631Z,1.00
2018-07-06T13:44:10.140Z,0.90
2018-07-06T13:46:37.719Z,0.90
2018-07-06T13:49:05.268Z,1.03
2018-07-06T13:51:32.825Z,1.00
2018-07-06T13:54:00.530Z,1.13
2018-07-06T13:56:28.641Z,1.20
2018-07-06T13:58:56.191Z,1.30
2018-07-06T14:01:24.293Z,1.40
2018-07-06T14:03:51.964Z,1.57
2018-07-06T14:06:19.505Z,1.00
2018-07-06T14:08:47.017Z,1.20
2018-07-06T14:11:15.635Z,1.20
2018-07-06T14:13:43.505Z,1.87
2018-07-06T14:16:11.073Z,1.30
2018-07-06T14:18:39.905Z,1.40
2018-07-06T14:21:08.017Z,1.20
2018-07-06T14:23:36.876Z,1.10
2018-07-06T14:26:04.481Z,1.20
2018-07-06T14:28:32.041Z,1.47
2018-07-06T14:30:59.705Z,1.40
2018-07-06T14:33:27.359Z,0.97
2018-07-06T14:35:55.821Z,1.20
2018-07-06T14:38:23.792Z,1.30
2018-07-06T14:40:51.739Z,1.10
2018-07-06T14:43:19.680Z,1.17
2018-07-06T14:45:47.310Z,1.20
2018-07-06T14:48:15.431Z,1.30
2018-07-06T14:50:43.032Z,1.30
2018-07-06T14:53:10.705Z,1.00
2018-07-06T14:55:38.691Z,1.23
2018-07-06T14:58:06.202Z,1.13
2018-07-06T15:00:34.565Z,1.00
2018-07-06T15:03:03.637Z,1.23
2018-07-06T15:05:31.284Z,1.13
2018-07-06T15:07:58.959Z,1.40
2018-07-06T15:10:26.969Z,1.23
2018-07-06T15:12:54.524Z,1.07
2018-07-06T15:15:22.402Z,1.10
2018-07-06T15:17:51.130Z,1.10
2018-07-06T15:20:18.620Z,1.17
2018-07-06T15:22:46.137Z,1.10
2018-07-06T15:25:13.697Z,1.10
2018-07-06T15:27:42.977Z,1.00
2018-07-06T15:30:10.540Z,1.30
2018-07-06T15:32:38.248Z,1.10
2018-07-06T15:35:06.228Z,0.90
2018-07-06T15:37:34.353Z,1.17
2018-07-06T15:40:01.962Z,1.50
2018-07-06T15:42:29.922Z,1.00
2018-07-06T15:44:57.836Z,2.20
2018-07-06T15:47:25.377Z,1.57
2018-07-06T15:49:52.886Z,2.33
2018-07-06T15:52:20.521Z,1.37
2018-07-06T15:54:48.404Z,1.20
2018-07-06T15:57:17.413Z,1.07
2018-07-06T15:59:45.248Z,1.20
2018-07-06T16:02:13.260Z,1.50
2018-07-06T16:04:41.170Z,1.10
2018-07-06T16:07:09.121Z,1.20
2018-07-06T16:09:37.597Z,1.10
2018-07-06T16:12:05.132Z,1.30
2018-07-06T16:14:32.820Z,1.90
2018-07-06T16:17:02.253Z,3.87
2018-07-06T16:19:29.812Z,1.47
2018-07-06T16:21:57.393Z,1.60
2018-07-06T16:24:25.444Z,1.60
2018-07-06T16:26:53.380Z,1.23
2018-07-06T16:29:21.396Z,3.43
2018-07-06T16:31:49.151Z,3.30
2018-07-06T16:34:17.240Z,4.50
2018-07-06T16:36:45.220Z,5.43
2018-07-06T16:39:12.804Z,5.87
2018-07-06T16:41:40.386Z,3.73
2018-07-06T16:44:09.569Z,5.13
2018-07-06T16:46:37.121Z,5.87
2018-07-06T16:49:04.777Z,6.67
2018-07-06T16:51:32.370Z,4.30
2018-07-06T16:54:00.633Z,4.77
2018-07-06T16:56:28.540Z,4.40
2018-07-06T16:58:56.098Z,2.50
2018-07-06T17:01:24.225Z,5.00
2018-07-06T17:03:52.409Z,3.70
2018-07-06T17:06:20.329Z,2.60
2018-07-06T17:08:47.920Z,2.90
2018-07-06T17:11:16.217Z,2.10
2018-07-06T17:13:43.757Z,2.00
2018-07-06T17:16:11.321Z,2.60
2018-07-06T17:18:39.185Z,2.17
2018-07-06T17:21:06.784Z,2.30
2018-07-06T17:23:34.945Z,2.23
2018-07-06T17:26:02.513Z,2.00
2018-07-06T17:28:30.052Z,2.67
2018-07-06T17:30:59.513Z,2.23
2018-07-06T17:33:27.723Z,2.10
2018-07-06T17:35:56.685Z,2.20
2018-07-06T17:38:24.236Z,2.10
2018-07-06T17:40:52.425Z,2.40
2018-07-06T17:43:21.097Z,2.13
2018-07-06T17:45:49.392Z,2.00
2018-07-06T17:48:17.474Z,2.20
2018-07-06T17:50:45.059Z,2.40
2018-07-06T17:53:13.217Z,2.23
2018-07-06T17:55:41.338Z,2.33
2018-07-06T17:58:08.939Z,1.97
2018-07-06T18:00:37.059Z,2.50
2018-07-06T18:03:05.828Z,2.27
2018-07-06T18:05:33.288Z,2.20
2018-07-06T18:08:01.104Z,2.30
2018-07-06T18:10:28.710Z,2.20
2018-07-06T18:12:56.462Z,2.87
2018-07-06T18:15:24.103Z,4.10
2018-07-06T18:17:52.701Z,2.90
2018-07-06T18:20:20.373Z,8.10
2018-07-06T18:22:49.066Z,4.77
2018-07-06T18:25:17.282Z,4.30
2018-07-06T18:27:45.289Z,4.13
2018-07-06T18:30:13.617Z,4.20
2018-07-06T18:32:42.330Z,3.60
2018-07-06T18:35:10.053Z,3.93
2018-07-06T18:37:38.042Z,4.30
2018-07-06T18:40:06.139Z,4.70
2018-07-06T18:42:33.764Z,3.93
2018-07-06T18:45:01.770Z,4.70
2018-07-06T18:47:29.397Z,5.30
2018-07-06T18:49:56.899Z,5.30
2018-07-06T18:52:24.475Z,5.70
2018-07-06T18:54:52.664Z,5.37
2018-07-06T18:57:20.648Z,5.20
2018-07-06T18:59:49.227Z,6.17
2018-07-06T19:02:17.139Z,5.77
2018-07-06T19:04:46.397Z,6.33
2018-07-06T19:07:13.954Z,6.07
2018-07-06T19:09:42.246Z,6.40
2018-07-06T19:12:09.812Z,6.63
2018-07-06T19:14:37.395Z,6.70
2018-07-06T19:17:05.753Z,6.77
2018-07-06T19:19:34.085Z,8.50
2018-07-06T19:22:01.664Z,9.27
2018-07-06T19:24:29.270Z,12.37
2018-07-06T19:26:57.236Z,10.33
2018-07-06T19:29:24.776Z,11.40
2018-07-06T19:31:52.329Z,12.10
2018-07-06T19:34:19.881Z,10.10
2018-07-06T19:36:48.422Z,10.97
2018-07-06T19:39:16.623Z,7.97
2018-07-06T19:41:44.147Z,7.37
2018-07-06T19:44:12.028Z,6.87
2018-07-06T19:46:39.556Z,8.50
2018-07-06T19:49:07.185Z,7.57
2018-07-06T19:51:34.720Z,7.13
2018-07-06T19:54:03.331Z,7.60
2018-07-06T19:56:32.012Z,7.33
2018-07-06T19:59:00.196Z,6.40
2018-07-06T20:01:28.178Z,6.60
2018-07-06T20:03:55.759Z,7.47
2018-07-06T20:06:23.401Z,7.73
2018-07-06T20:08:50.970Z,7.23
2018-07-06T20:11:18.513Z,6.90
2018-07-06T20:13:46.182Z,5.90
2018-07-06T20:16:14.103Z,7.20
2018-07-06T20:18:42.289Z,7.00
2018-07-06T20:21:10.435Z,7.03
2018-07-06T20:23:38.349Z,7.10
2018-07-06T20:26:06.425Z,6.30
2018-07-06T20:28:34.569Z,4.53
2018-07-06T20:31:02.113Z,5.00
2018-07-06T20:33:29.652Z,5.13
2018-07-06T20:35:57.641Z,4.77
2018-07-06T20:38:25.189Z,4.93
2018-07-06T20:40:52.753Z,5.40
2018-07-06T20:43:20.721Z,7.07
2018-07-06T20:45:48.382Z,6.10
2018-07-06T20:48:15.906Z,7.70
2018-07-06T20:50:44.097Z,6.70
2018-07-06T20:53:12.115Z,6.80
2018-07-06T20:55:40.028Z,5.67
2018-07-06T20:58:08.183Z,4.40
2018-07-06T21:00:36.139Z,5.77
2018-07-06T21:03:03.757Z,4.60
2018-07-06T21:05:31.302Z,6.10
2018-07-06T21:07:58.881Z,6.67
2018-07-06T21:10:26.543Z,6.13
2018-07-06T21:12:54.170Z,5.70
2018-07-06T21:15:21.945Z,5.00
2018-07-06T21:17:50.031Z,4.90
2018-07-06T21:20:18.045Z,6.93
2018-07-06T21:22:45.865Z,6.60
2018-07-06T21:25:13.418Z,6.53
2018-07-06T21:27:40.978Z,4.90
2018-07-06T21:30:08.949Z,4.53
2018-07-06T21:32:36.957Z,6.97
2018-07-06T21:35:05.070Z,6.43
2018-07-06T21:37:33.609Z,6.17
2018-07-06T21:40:01.185Z,5.30
2018-07-06T21:42:29.133Z,8.30
2018-07-06T21:44:57.762Z,6.10
2018-07-06T21:47:25.329Z,6.23
2018-07-06T21:49:54.011Z,6.63
2018-07-06T21:52:22.485Z,6.53
2018-07-06T21:54:50.489Z,8.83
2018-07-06T21:57:19.420Z,7.23
2018-07-06T21:59:46.968Z,4.80
2018-07-06T22:02:15.900Z,4.57
2018-07-06T22:04:45.616Z,4.13
2018-07-06T22:07:14.616Z,3.90
2018-07-06T22:09:42.241Z,4.20
2018-07-06T22:12:09.817Z,4.23
2018-07-06T22:14:38.544Z,3.97
2018-07-06T22:17:07.130Z,3.43
2018-07-06T22:19:35.145Z,3.57
2018-07-06T22:22:02.752Z,4.50
2018-07-06T22:24:30.430Z,4.23
2018-07-06T22:26:58.295Z,4.67
2018-07-06T22:29:25.939Z,5.30
2018-07-06T22:31:53.537Z,6.10
2018-07-06T22:34:21.150Z,5.63
2018-07-06T22:36:49.244Z,5.10
2018-07-06T22:39:16.769Z,5.20
2018-07-06T22:41:44.840Z,5.50
2018-07-06T22:44:12.928Z,4.70
2018-07-06T22:46:40.500Z,4.50
2018-07-06T22:49:08.064Z,6.70
2018-07-06T22:51:36.304Z,6.00
2018-07-06T22:54:04.200Z,5.00
2018-07-06T22:56:32.355Z,8.27
2018-07-06T22:58:59.948Z,6.80
2018-07-06T23:01:27.947Z,7.37
2018-07-06T23:03:56.180Z,6.13
2018-07-06T23:06:23.767Z,5.50
2018-07-06T23:08:51.278Z,6.00
2018-07-06T23:11:18.840Z,5.10
2018-07-06T23:13:47.129Z,5.27
2018-07-06T23:16:15.092Z,8.90
2018-07-06T23:18:42.995Z,10.00
2018-07-06T23:21:10.556Z,8.70
2018-07-06T23:23:39.040Z,8.10
2018-07-06T23:26:06.604Z,7.90
2018-07-06T23:28:34.227Z,5.10
2018-07-06T23:31:01.790Z,3.93
2018-07-06T23:33:29.340Z,4.37
2018-07-06T23:35:58.924Z,4.30
2018-07-06T23:38:27.102Z,3.97
2018-07-06T23:40:55.508Z,3.60
2018-07-06T23:43:23.554Z,4.07
2018-07-06T23:45:51.176Z,3.37
2018-07-06T23:48:19.289Z,3.23
2018-07-06T23:50:47.199Z,3.73
2018-07-06T23:53:16.072Z,4.77
2018-07-06T23:55:44.444Z,5.10
2018-07-06T23:58:12.110Z,4.50
